sensor_id;sensor_type;location;lat;lon;timestamp;temperature;humidity
76333;DHT22;71254;53.010;6.508;2024-01-30T00:01:19;5.40;99.90
76333;DHT22;71254;53.010;6.508;2024-01-30T00:03:44;5.40;99.90
76333;DHT22;71254;53.010;6.508;2024-01-30T00:06:11;5.50;99.90
76333;DHT22;71254;53.010;6.508;2024-01-30T00:08:36;5.50;99.90
76333;DHT22;71254;53.010;6.508;2024-01-30T00:11:02;5.50;99.90
76333;DHT22;71254;53.010;6.508;2024-01-30T00:13:28;5.50;99.90
76333;DHT22;71254;53.010;6.508;2024-01-30T00:15:53;5.50;99.90
76333;DHT22;71254;53.010;6.508;2024-01-30T00:18:19;5.50;99.90
76333;DHT22;71254;53.010;6.508;2024-01-30T00:20:45;5.50;99.90
76333;DHT22;71254;53.010;6.508;2024-01-30T00:23:10;5.60;99.90
76333;DHT22;71254;53.010;6.508;2024-01-30T00:25:36;5.60;99.90
76333;DHT22;71254;53.010;6.508;2024-01-30T00:28:02;5.60;99.90
76333;DHT22;71254;53.010;6.508;2024-01-30T00:30:27;5.60;99.90
76333;DHT22;71254;53.010;6.508;2024-01-30T00:32:54;5.70;99.90
76333;DHT22;71254;53.010;6.508;2024-01-30T00:35:19;5.70;99.90
76333;DHT22;71254;53.010;6.508;2024-01-30T00:37:47;7.00;99.90
76333;DHT22;71254;53.010;6.508;2024-01-30T00:40:13;5.60;99.90
76333;DHT22;71254;53.010;6.508;2024-01-30T00:42:42;5.60;99.90
76333;DHT22;71254;53.010;6.508;2024-01-30T00:45:15;5.60;99.90
76333;DHT22;71254;53.010;6.508;2024-01-30T00:47:41;5.60;99.90
76333;DHT22;71254;53.010;6.508;2024-01-30T00:50:07;5.60;99.90
76333;DHT22;71254;53.010;6.508;2024-01-30T00:52:32;5.50;99.90
76333;DHT22;71254;53.010;6.508;2024-01-30T00:54:59;5.50;99.90
76333;DHT22;71254;53.010;6.508;2024-01-30T00:57:24;5.50;99.90
76333;DHT22;71254;53.010;6.508;2024-01-30T00:59:50;5.50;99.90
76333;DHT22;71254;53.010;6.508;2024-01-30T01:02:16;5.30;99.90
76333;DHT22;71254;53.010;6.508;2024-01-30T01:04:43;5.50;99.90
76333;DHT22;71254;53.010;6.508;2024-01-30T01:07:09;5.50;99.90
76333;DHT22;71254;53.010;6.508;2024-01-30T01:09:35;5.50;99.90
76333;DHT22;71254;53.010;6.508;2024-01-30T01:12:02;5.50;99.90
76333;DHT22;71254;53.010;6.508;2024-01-30T01:14:27;4.80;99.90
76333;DHT22;71254;53.010;6.508;2024-01-30T01:16:53;5.50;99.90
76333;DHT22;71254;53.010;6.508;2024-01-30T01:19:19;5.50;99.90
76333;DHT22;71254;53.010;6.508;2024-01-30T01:21:44;5.50;99.90
76333;DHT22;71254;53.010;6.508;2024-01-30T01:24:10;5.50;99.90
76333;DHT22;71254;53.010;6.508;2024-01-30T01:26:35;7.00;99.90
76333;DHT22;71254;53.010;6.508;2024-01-30T01:29:01;5.60;99.90
76333;DHT22;71254;53.010;6.508;2024-01-30T01:31:26;6.10;99.90
76333;DHT22;71254;53.010;6.508;2024-01-30T01:33:55;5.50;99.90
76333;DHT22;71254;53.010;6.508;2024-01-30T01:36:20;5.60;99.90
76333;DHT22;71254;53.010;6.508;2024-01-30T01:38:46;6.10;99.90
76333;DHT22;71254;53.010;6.508;2024-01-30T01:41:12;5.60;99.90
76333;DHT22;71254;53.010;6.508;2024-01-30T01:43:37;5.50;99.90
76333;DHT22;71254;53.010;6.508;2024-01-30T01:46:05;5.50;99.90
76333;DHT22;71254;53.010;6.508;2024-01-30T01:48:32;6.20;99.90
76333;DHT22;71254;53.010;6.508;2024-01-30T01:50:58;5.50;99.90
76333;DHT22;71254;53.010;6.508;2024-01-30T01:53:25;5.50;99.90
76333;DHT22;71254;53.010;6.508;2024-01-30T01:55:51;5.50;99.90
76333;DHT22;71254;53.010;6.508;2024-01-30T01:58:19;5.50;99.90
76333;DHT22;71254;53.010;6.508;2024-01-30T02:00:46;5.50;99.90
76333;DHT22;71254;53.010;6.508;2024-01-30T02:03:14;5.50;99.90
76333;DHT22;71254;53.010;6.508;2024-01-30T02:05:41;5.50;99.90
76333;DHT22;71254;53.010;6.508;2024-01-30T02:08:08;4.80;99.90
76333;DHT22;71254;53.010;6.508;2024-01-30T02:10:34;5.50;99.90
76333;DHT22;71254;53.010;6.508;2024-01-30T02:13:00;5.50;99.90
76333;DHT22;71254;53.010;6.508;2024-01-30T02:15:25;5.50;99.90
76333;DHT22;71254;53.010;6.508;2024-01-30T02:17:51;5.50;99.90
76333;DHT22;71254;53.010;6.508;2024-01-30T02:20:16;5.50;99.90
76333;DHT22;71254;53.010;6.508;2024-01-30T02:22:42;5.60;99.90
76333;DHT22;71254;53.010;6.508;2024-01-30T02:25:08;5.60;99.90
76333;DHT22;71254;53.010;6.508;2024-01-30T02:27:34;5.60;99.90
76333;DHT22;71254;53.010;6.508;2024-01-30T02:29:59;5.60;99.90
76333;DHT22;71254;53.010;6.508;2024-01-30T02:32:25;5.60;99.90
76333;DHT22;71254;53.010;6.508;2024-01-30T02:34:50;5.60;99.90
76333;DHT22;71254;53.010;6.508;2024-01-30T02:37:16;5.60;99.90
76333;DHT22;71254;53.010;6.508;2024-01-30T02:39:42;5.60;99.90
76333;DHT22;71254;53.010;6.508;2024-01-30T02:42:08;6.80;99.90
76333;DHT22;71254;53.010;6.508;2024-01-30T02:44:35;5.50;99.90
76333;DHT22;71254;53.010;6.508;2024-01-30T02:47:01;5.60;99.90
76333;DHT22;71254;53.010;6.508;2024-01-30T02:49:27;5.60;99.90
76333;DHT22;71254;53.010;6.508;2024-01-30T02:51:54;5.50;99.90
76333;DHT22;71254;53.010;6.508;2024-01-30T02:54:20;5.50;99.90
76333;DHT22;71254;53.010;6.508;2024-01-30T02:56:45;5.50;99.90
76333;DHT22;71254;53.010;6.508;2024-01-30T02:59:11;5.50;99.90
76333;DHT22;71254;53.010;6.508;2024-01-30T03:01:43;5.50;99.90
76333;DHT22;71254;53.010;6.508;2024-01-30T03:04:09;6.50;99.90
76333;DHT22;71254;53.010;6.508;2024-01-30T03:06:38;5.50;99.90
76333;DHT22;71254;53.010;6.508;2024-01-30T03:09:04;5.10;99.90
76333;DHT22;71254;53.010;6.508;2024-01-30T03:11:30;5.50;99.90
76333;DHT22;71254;53.010;6.508;2024-01-30T03:13:58;5.50;99.90
76333;DHT22;71254;53.010;6.508;2024-01-30T03:16:24;5.50;99.90
76333;DHT22;71254;53.010;6.508;2024-01-30T03:18:49;5.50;99.90
76333;DHT22;71254;53.010;6.508;2024-01-30T03:21:18;5.50;99.90
76333;DHT22;71254;53.010;6.508;2024-01-30T03:23:43;5.50;99.90
76333;DHT22;71254;53.010;6.508;2024-01-30T03:26:09;5.50;99.90
76333;DHT22;71254;53.010;6.508;2024-01-30T03:28:36;5.30;99.90
76333;DHT22;71254;53.010;6.508;2024-01-30T03:31:02;5.50;99.90
76333;DHT22;71254;53.010;6.508;2024-01-30T03:33:27;5.50;99.90
76333;DHT22;71254;53.010;6.508;2024-01-30T03:35:53;5.50;99.90
76333;DHT22;71254;53.010;6.508;2024-01-30T03:38:19;5.50;99.90
76333;DHT22;71254;53.010;6.508;2024-01-30T03:40:44;5.60;99.90
76333;DHT22;71254;53.010;6.508;2024-01-30T03:43:10;5.60;99.90
76333;DHT22;71254;53.010;6.508;2024-01-30T03:45:36;5.60;99.90
76333;DHT22;71254;53.010;6.508;2024-01-30T03:48:01;5.60;99.90
76333;DHT22;71254;53.010;6.508;2024-01-30T03:50:27;6.70;99.90
76333;DHT22;71254;53.010;6.508;2024-01-30T03:52:53;5.60;99.90
76333;DHT22;71254;53.010;6.508;2024-01-30T03:55:19;5.70;99.90
76333;DHT22;71254;53.010;6.508;2024-01-30T03:57:44;5.70;99.90
76333;DHT22;71254;53.010;6.508;2024-01-30T04:00:10;5.70;99.90
76333;DHT22;71254;53.010;6.508;2024-01-30T04:02:36;5.70;99.90
76333;DHT22;71254;53.010;6.508;2024-01-30T04:05:01;5.80;99.90
76333;DHT22;71254;53.010;6.508;2024-01-30T04:07:27;5.80;99.90
76333;DHT22;71254;53.010;6.508;2024-01-30T04:09:53;5.90;99.90
76333;DHT22;71254;53.010;6.508;2024-01-30T04:12:18;5.90;99.90
76333;DHT22;71254;53.010;6.508;2024-01-30T04:14:44;5.90;99.90
76333;DHT22;71254;53.010;6.508;2024-01-30T04:17:09;6.00;99.90
76333;DHT22;71254;53.010;6.508;2024-01-30T04:19:37;5.80;99.90
76333;DHT22;71254;53.010;6.508;2024-01-30T04:22:04;6.00;99.90
76333;DHT22;71254;53.010;6.508;2024-01-30T04:24:29;6.10;99.90
76333;DHT22;71254;53.010;6.508;2024-01-30T04:26:55;6.10;99.90
76333;DHT22;71254;53.010;6.508;2024-01-30T04:29:20;6.10;99.90
76333;DHT22;71254;53.010;6.508;2024-01-30T04:31:47;6.10;99.90
76333;DHT22;71254;53.010;6.508;2024-01-30T04:34:13;6.10;99.90
76333;DHT22;71254;53.010;6.508;2024-01-30T04:36:39;6.10;99.90
76333;DHT22;71254;53.010;6.508;2024-01-30T04:39:04;6.20;99.90
76333;DHT22;71254;53.010;6.508;2024-01-30T04:41:30;6.20;99.90
76333;DHT22;71254;53.010;6.508;2024-01-30T04:43:57;6.20;99.90
76333;DHT22;71254;53.010;6.508;2024-01-30T04:46:23;6.20;99.90
76333;DHT22;71254;53.010;6.508;2024-01-30T04:48:51;6.20;99.90
76333;DHT22;71254;53.010;6.508;2024-01-30T04:51:17;6.20;99.90
76333;DHT22;71254;53.010;6.508;2024-01-30T04:53:42;6.20;99.90
76333;DHT22;71254;53.010;6.508;2024-01-30T04:56:08;6.30;99.90
76333;DHT22;71254;53.010;6.508;2024-01-30T04:58:33;6.30;99.90
76333;DHT22;71254;53.010;6.508;2024-01-30T05:00:59;6.30;99.90
76333;DHT22;71254;53.010;6.508;2024-01-30T05:03:25;5.10;99.90
76333;DHT22;71254;53.010;6.508;2024-01-30T05:05:50;6.40;99.90
76333;DHT22;71254;53.010;6.508;2024-01-30T05:08:16;6.40;99.90
76333;DHT22;71254;53.010;6.508;2024-01-30T05:10:41;6.40;99.90
76333;DHT22;71254;53.010;6.508;2024-01-30T05:13:07;6.50;99.90
76333;DHT22;71254;53.010;6.508;2024-01-30T05:15:33;6.50;99.90
76333;DHT22;71254;53.010;6.508;2024-01-30T05:17:58;6.50;99.90
76333;DHT22;71254;53.010;6.508;2024-01-30T05:20:24;6.50;99.90
76333;DHT22;71254;53.010;6.508;2024-01-30T05:22:53;6.50;99.90
76333;DHT22;71254;53.010;6.508;2024-01-30T05:25:19;6.60;99.90
76333;DHT22;71254;53.010;6.508;2024-01-30T05:27:44;6.60;99.90
76333;DHT22;71254;53.010;6.508;2024-01-30T05:30:10;6.60;99.90
76333;DHT22;71254;53.010;6.508;2024-01-30T05:32:36;6.60;99.90
76333;DHT22;71254;53.010;6.508;2024-01-30T05:35:02;6.60;99.90
76333;DHT22;71254;53.010;6.508;2024-01-30T05:37:28;6.60;99.90
76333;DHT22;71254;53.010;6.508;2024-01-30T05:39:53;6.70;99.90
76333;DHT22;71254;53.010;6.508;2024-01-30T05:42:19;6.70;99.90
76333;DHT22;71254;53.010;6.508;2024-01-30T05:44:45;6.70;99.90
76333;DHT22;71254;53.010;6.508;2024-01-30T05:47:10;7.90;99.90
76333;DHT22;71254;53.010;6.508;2024-01-30T05:49:36;6.70;99.90
76333;DHT22;71254;53.010;6.508;2024-01-30T05:52:03;6.70;99.90
76333;DHT22;71254;53.010;6.508;2024-01-30T05:54:29;6.70;99.90
76333;DHT22;71254;53.010;6.508;2024-01-30T05:56:54;6.80;99.90
76333;DHT22;71254;53.010;6.508;2024-01-30T05:59:20;6.80;99.90
76333;DHT22;71254;53.010;6.508;2024-01-30T06:01:49;6.80;99.90
76333;DHT22;71254;53.010;6.508;2024-01-30T06:04:15;6.80;99.90
76333;DHT22;71254;53.010;6.508;2024-01-30T06:06:43;6.80;99.90
76333;DHT22;71254;53.010;6.508;2024-01-30T06:09:09;6.80;99.90
76333;DHT22;71254;53.010;6.508;2024-01-30T06:11:35;6.80;99.90
76333;DHT22;71254;53.010;6.508;2024-01-30T06:14:01;6.80;99.90
76333;DHT22;71254;53.010;6.508;2024-01-30T06:16:26;6.80;99.90
76333;DHT22;71254;53.010;6.508;2024-01-30T06:18:55;6.80;99.90
76333;DHT22;71254;53.010;6.508;2024-01-30T06:21:21;6.90;99.90
76333;DHT22;71254;53.010;6.508;2024-01-30T06:23:47;6.90;99.90
76333;DHT22;71254;53.010;6.508;2024-01-30T06:26:12;6.90;99.90
76333;DHT22;71254;53.010;6.508;2024-01-30T06:28:38;6.90;99.90
76333;DHT22;71254;53.010;6.508;2024-01-30T06:31:04;6.90;99.90
76333;DHT22;71254;53.010;6.508;2024-01-30T06:33:31;6.90;99.90
76333;DHT22;71254;53.010;6.508;2024-01-30T06:35:56;6.90;99.90
76333;DHT22;71254;53.010;6.508;2024-01-30T06:38:22;6.90;99.90
76333;DHT22;71254;53.010;6.508;2024-01-30T06:40:48;7.00;99.90
76333;DHT22;71254;53.010;6.508;2024-01-30T06:43:13;6.90;99.90
76333;DHT22;71254;53.010;6.508;2024-01-30T06:45:39;7.00;99.90
76333;DHT22;71254;53.010;6.508;2024-01-30T06:48:05;7.00;99.90
76333;DHT22;71254;53.010;6.508;2024-01-30T06:50:30;7.90;99.90
76333;DHT22;71254;53.010;6.508;2024-01-30T06:52:56;7.00;99.90
76333;DHT22;71254;53.010;6.508;2024-01-30T06:55:22;7.00;99.90
76333;DHT22;71254;53.010;6.508;2024-01-30T06:57:47;7.00;99.90
76333;DHT22;71254;53.010;6.508;2024-01-30T07:00:13;7.10;99.90
76333;DHT22;71254;53.010;6.508;2024-01-30T07:02:40;7.00;99.90
76333;DHT22;71254;53.010;6.508;2024-01-30T07:05:05;7.10;99.90
76333;DHT22;71254;53.010;6.508;2024-01-30T07:07:31;7.10;99.90
76333;DHT22;71254;53.010;6.508;2024-01-30T07:09:57;7.10;99.90
76333;DHT22;71254;53.010;6.508;2024-01-30T07:12:23;7.10;99.90
76333;DHT22;71254;53.010;6.508;2024-01-30T07:14:51;7.10;99.90
76333;DHT22;71254;53.010;6.508;2024-01-30T07:17:16;7.10;99.90
76333;DHT22;71254;53.010;6.508;2024-01-30T07:19:42;7.20;99.90
76333;DHT22;71254;53.010;6.508;2024-01-30T07:22:08;7.20;99.90
76333;DHT22;71254;53.010;6.508;2024-01-30T07:24:34;7.20;99.90
76333;DHT22;71254;53.010;6.508;2024-01-30T07:26:59;7.20;99.90
76333;DHT22;71254;53.010;6.508;2024-01-30T07:29:25;7.20;99.90
76333;DHT22;71254;53.010;6.508;2024-01-30T07:31:51;7.30;99.90
76333;DHT22;71254;53.010;6.508;2024-01-30T07:34:16;7.30;99.90
76333;DHT22;71254;53.010;6.508;2024-01-30T07:36:42;7.30;99.90
76333;DHT22;71254;53.010;6.508;2024-01-30T07:39:08;7.30;99.90
76333;DHT22;71254;53.010;6.508;2024-01-30T07:41:33;7.30;99.90
76333;DHT22;71254;53.010;6.508;2024-01-30T07:43:59;7.40;99.90
76333;DHT22;71254;53.010;6.508;2024-01-30T07:46:25;7.40;99.90
76333;DHT22;71254;53.010;6.508;2024-01-30T07:48:53;7.40;99.90
76333;DHT22;71254;53.010;6.508;2024-01-30T07:51:19;7.50;99.90
76333;DHT22;71254;53.010;6.508;2024-01-30T07:53:58;7.50;99.90
76333;DHT22;71254;53.010;6.508;2024-01-30T07:56:23;7.50;99.90
76333;DHT22;71254;53.010;6.508;2024-01-30T07:58:49;8.20;99.90
76333;DHT22;71254;53.010;6.508;2024-01-30T08:01:15;7.60;99.90
76333;DHT22;71254;53.010;6.508;2024-01-30T08:03:41;7.50;99.90
76333;DHT22;71254;53.010;6.508;2024-01-30T08:06:07;7.50;99.90
76333;DHT22;71254;53.010;6.508;2024-01-30T08:08:33;7.60;99.90
76333;DHT22;71254;53.010;6.508;2024-01-30T08:10:58;7.60;99.90
76333;DHT22;71254;53.010;6.508;2024-01-30T08:13:24;9.00;99.90
76333;DHT22;71254;53.010;6.508;2024-01-30T08:15:49;7.60;99.90
76333;DHT22;71254;53.010;6.508;2024-01-30T08:18:15;7.60;99.90
76333;DHT22;71254;53.010;6.508;2024-01-30T08:20:41;8.90;99.90
76333;DHT22;71254;53.010;6.508;2024-01-30T08:23:06;7.60;99.90
76333;DHT22;71254;53.010;6.508;2024-01-30T08:25:32;7.70;99.90
76333;DHT22;71254;53.010;6.508;2024-01-30T08:27:58;7.70;99.90
76333;DHT22;71254;53.010;6.508;2024-01-30T08:30:23;7.70;99.90
76333;DHT22;71254;53.010;6.508;2024-01-30T08:32:49;7.70;99.90
76333;DHT22;71254;53.010;6.508;2024-01-30T08:35:14;7.70;99.90
76333;DHT22;71254;53.010;6.508;2024-01-30T08:37:41;7.80;99.90
76333;DHT22;71254;53.010;6.508;2024-01-30T08:40:07;7.80;99.90
76333;DHT22;71254;53.010;6.508;2024-01-30T08:42:36;7.80;99.90
76333;DHT22;71254;53.010;6.508;2024-01-30T08:45:02;7.90;99.90
76333;DHT22;71254;53.010;6.508;2024-01-30T08:47:28;7.90;99.90
76333;DHT22;71254;53.010;6.508;2024-01-30T08:49:54;7.90;99.90
76333;DHT22;71254;53.010;6.508;2024-01-30T08:52:19;8.00;99.90
76333;DHT22;71254;53.010;6.508;2024-01-30T08:54:45;8.00;99.90
76333;DHT22;71254;53.010;6.508;2024-01-30T08:57:10;8.00;99.90
76333;DHT22;71254;53.010;6.508;2024-01-30T08:59:36;8.10;99.90
76333;DHT22;71254;53.010;6.508;2024-01-30T09:02:02;8.10;99.90
76333;DHT22;71254;53.010;6.508;2024-01-30T09:04:28;8.20;99.90
76333;DHT22;71254;53.010;6.508;2024-01-30T09:06:54;8.20;99.90
76333;DHT22;71254;53.010;6.508;2024-01-30T09:09:20;8.20;99.90
76333;DHT22;71254;53.010;6.508;2024-01-30T09:11:46;8.30;99.90
76333;DHT22;71254;53.010;6.508;2024-01-30T09:14:11;8.30;99.90
76333;DHT22;71254;53.010;6.508;2024-01-30T09:16:37;8.40;99.90
76333;DHT22;71254;53.010;6.508;2024-01-30T09:19:03;8.40;99.90
76333;DHT22;71254;53.010;6.508;2024-01-30T09:21:29;8.40;99.90
76333;DHT22;71254;53.010;6.508;2024-01-30T09:24:00;8.40;99.90
76333;DHT22;71254;53.010;6.508;2024-01-30T09:26:26;8.40;99.90
76333;DHT22;71254;53.010;6.508;2024-01-30T09:28:52;8.50;99.90
76333;DHT22;71254;53.010;6.508;2024-01-30T09:31:20;8.50;99.90
76333;DHT22;71254;53.010;6.508;2024-01-30T09:33:45;8.60;99.90
76333;DHT22;71254;53.010;6.508;2024-01-30T09:36:13;8.60;99.90
76333;DHT22;71254;53.010;6.508;2024-01-30T09:38:40;8.70;99.90
76333;DHT22;71254;53.010;6.508;2024-01-30T09:41:09;8.80;99.90
76333;DHT22;71254;53.010;6.508;2024-01-30T09:43:38;8.80;99.90
76333;DHT22;71254;53.010;6.508;2024-01-30T09:46:05;8.90;99.90
76333;DHT22;71254;53.010;6.508;2024-01-30T09:48:33;9.00;99.90
76333;DHT22;71254;53.010;6.508;2024-01-30T09:50:59;9.10;99.90
76333;DHT22;71254;53.010;6.508;2024-01-30T09:53:25;9.20;99.90
76333;DHT22;71254;53.010;6.508;2024-01-30T09:55:51;9.30;99.90
76333;DHT22;71254;53.010;6.508;2024-01-30T09:58:17;9.30;99.90
76333;DHT22;71254;53.010;6.508;2024-01-30T10:00:43;9.40;99.90
76333;DHT22;71254;53.010;6.508;2024-01-30T10:03:09;9.40;99.90
76333;DHT22;71254;53.010;6.508;2024-01-30T10:05:36;9.50;99.90
76333;DHT22;71254;53.010;6.508;2024-01-30T10:08:07;10.20;99.90
76333;DHT22;71254;53.010;6.508;2024-01-30T10:10:34;9.50;99.90
76333;DHT22;71254;53.010;6.508;2024-01-30T10:13:00;9.60;99.90
76333;DHT22;71254;53.010;6.508;2024-01-30T10:15:28;9.60;99.90
76333;DHT22;71254;53.010;6.508;2024-01-30T10:17:53;9.70;99.90
76333;DHT22;71254;53.010;6.508;2024-01-30T10:20:19;9.80;99.90
76333;DHT22;71254;53.010;6.508;2024-01-30T10:22:47;9.80;99.90
76333;DHT22;71254;53.010;6.508;2024-01-30T10:25:13;9.90;99.90
76333;DHT22;71254;53.010;6.508;2024-01-30T10:27:40;9.90;99.90
76333;DHT22;71254;53.010;6.508;2024-01-30T10:30:06;10.00;99.90
76333;DHT22;71254;53.010;6.508;2024-01-30T10:32:32;10.00;99.90
76333;DHT22;71254;53.010;6.508;2024-01-30T10:34:58;10.00;99.90
76333;DHT22;71254;53.010;6.508;2024-01-30T10:37:25;10.10;99.90
76333;DHT22;71254;53.010;6.508;2024-01-30T10:39:53;11.50;99.90
76333;DHT22;71254;53.010;6.508;2024-01-30T10:42:26;10.10;99.90
76333;DHT22;71254;53.010;6.508;2024-01-30T10:45:09;10.90;99.90
76333;DHT22;71254;53.010;6.508;2024-01-30T10:47:35;10.10;99.90
76333;DHT22;71254;53.010;6.508;2024-01-30T10:50:02;10.10;99.90
76333;DHT22;71254;53.010;6.508;2024-01-30T10:52:29;10.10;99.90
76333;DHT22;71254;53.010;6.508;2024-01-30T10:54:56;10.10;99.90
76333;DHT22;71254;53.010;6.508;2024-01-30T10:57:23;10.10;99.90
76333;DHT22;71254;53.010;6.508;2024-01-30T10:59:52;10.10;99.90
76333;DHT22;71254;53.010;6.508;2024-01-30T11:02:19;10.20;99.90
76333;DHT22;71254;53.010;6.508;2024-01-30T11:04:45;10.10;99.90
76333;DHT22;71254;53.010;6.508;2024-01-30T11:09:48;10.20;99.90
76333;DHT22;71254;53.010;6.508;2024-01-30T11:12:13;10.20;99.90
76333;DHT22;71254;53.010;6.508;2024-01-30T11:14:39;10.20;99.90
76333;DHT22;71254;53.010;6.508;2024-01-30T11:17:10;10.30;99.90
76333;DHT22;71254;53.010;6.508;2024-01-30T11:19:38;10.60;99.90
76333;DHT22;71254;53.010;6.508;2024-01-30T11:22:06;10.30;99.90
76333;DHT22;71254;53.010;6.508;2024-01-30T11:24:40;10.30;99.90
76333;DHT22;71254;53.010;6.508;2024-01-30T11:27:09;10.30;99.90
76333;DHT22;71254;53.010;6.508;2024-01-30T11:29:35;10.30;99.90
76333;DHT22;71254;53.010;6.508;2024-01-30T11:32:02;10.30;99.90
76333;DHT22;71254;53.010;6.508;2024-01-30T11:34:28;10.40;99.90
76333;DHT22;71254;53.010;6.508;2024-01-30T11:37:03;10.30;99.90
76333;DHT22;71254;53.010;6.508;2024-01-30T11:39:31;10.30;99.90
76333;DHT22;71254;53.010;6.508;2024-01-30T11:41:58;10.30;99.90
76333;DHT22;71254;53.010;6.508;2024-01-30T11:44:27;10.30;99.90
76333;DHT22;71254;53.010;6.508;2024-01-30T11:46:52;10.30;99.90
76333;DHT22;71254;53.010;6.508;2024-01-30T11:49:18;10.30;99.90
76333;DHT22;71254;53.010;6.508;2024-01-30T11:51:47;10.30;99.90
76333;DHT22;71254;53.010;6.508;2024-01-30T11:54:16;10.30;99.90
76333;DHT22;71254;53.010;6.508;2024-01-30T11:56:42;10.20;99.90
76333;DHT22;71254;53.010;6.508;2024-01-30T11:59:08;10.20;99.90
76333;DHT22;71254;53.010;6.508;2024-01-30T12:01:34;10.10;99.90
76333;DHT22;71254;53.010;6.508;2024-01-30T12:04:00;10.10;99.90
76333;DHT22;71254;53.010;6.508;2024-01-30T12:06:25;10.00;99.90
76333;DHT22;71254;53.010;6.508;2024-01-30T12:08:59;10.00;99.90
76333;DHT22;71254;53.010;6.508;2024-01-30T12:11:25;9.90;99.90
76333;DHT22;71254;53.010;6.508;2024-01-30T12:13:52;9.90;99.90
76333;DHT22;71254;53.010;6.508;2024-01-30T12:16:18;9.90;99.90
76333;DHT22;71254;53.010;6.508;2024-01-30T12:18:44;9.90;99.90
76333;DHT22;71254;53.010;6.508;2024-01-30T12:21:11;9.90;99.90
76333;DHT22;71254;53.010;6.508;2024-01-30T12:23:37;9.90;99.90
76333;DHT22;71254;53.010;6.508;2024-01-30T12:26:03;10.00;99.90
76333;DHT22;71254;53.010;6.508;2024-01-30T12:28:32;10.10;99.90
76333;DHT22;71254;53.010;6.508;2024-01-30T12:31:02;10.20;99.90
76333;DHT22;71254;53.010;6.508;2024-01-30T12:33:29;10.20;99.90
76333;DHT22;71254;53.010;6.508;2024-01-30T12:35:56;11.30;99.90
76333;DHT22;71254;53.010;6.508;2024-01-30T12:38:23;10.20;99.90
76333;DHT22;71254;53.010;6.508;2024-01-30T12:40:54;11.00;99.90
76333;DHT22;71254;53.010;6.508;2024-01-30T12:43:19;10.10;99.90
76333;DHT22;71254;53.010;6.508;2024-01-30T12:45:45;10.10;99.90
76333;DHT22;71254;53.010;6.508;2024-01-30T12:48:10;10.10;99.90
76333;DHT22;71254;53.010;6.508;2024-01-30T12:50:36;10.10;99.90
76333;DHT22;71254;53.010;6.508;2024-01-30T12:53:04;10.10;99.90
76333;DHT22;71254;53.010;6.508;2024-01-30T12:55:30;10.10;99.90
76333;DHT22;71254;53.010;6.508;2024-01-30T12:57:56;10.00;99.90
76333;DHT22;71254;53.010;6.508;2024-01-30T13:00:21;10.00;99.90
76333;DHT22;71254;53.010;6.508;2024-01-30T13:02:48;9.90;99.90
76333;DHT22;71254;53.010;6.508;2024-01-30T13:05:14;9.90;99.90
76333;DHT22;71254;53.010;6.508;2024-01-30T13:07:40;9.90;99.90
76333;DHT22;71254;53.010;6.508;2024-01-30T13:10:06;9.90;99.90
76333;DHT22;71254;53.010;6.508;2024-01-30T13:12:32;9.90;99.90
76333;DHT22;71254;53.010;6.508;2024-01-30T13:14:58;9.80;99.90
76333;DHT22;71254;53.010;6.508;2024-01-30T13:17:26;9.90;99.90
76333;DHT22;71254;53.010;6.508;2024-01-30T13:19:52;10.00;99.90
76333;DHT22;71254;53.010;6.508;2024-01-30T13:22:19;10.00;99.90
76333;DHT22;71254;53.010;6.508;2024-01-30T13:24:47;10.00;99.90
76333;DHT22;71254;53.010;6.508;2024-01-30T13:27:13;10.80;99.90
76333;DHT22;71254;53.010;6.508;2024-01-30T13:29:39;10.10;99.90
76333;DHT22;71254;53.010;6.508;2024-01-30T13:32:05;10.00;99.90
76333;DHT22;71254;53.010;6.508;2024-01-30T13:34:31;9.40;99.90
76333;DHT22;71254;53.010;6.508;2024-01-30T13:36:56;10.10;99.90
76333;DHT22;71254;53.010;6.508;2024-01-30T13:39:22;10.10;99.90
76333;DHT22;71254;53.010;6.508;2024-01-30T13:41:48;10.10;99.90
76333;DHT22;71254;53.010;6.508;2024-01-30T13:44:15;10.00;99.90
76333;DHT22;71254;53.010;6.508;2024-01-30T13:46:44;10.00;99.90
76333;DHT22;71254;53.010;6.508;2024-01-30T13:49:11;10.00;99.90
76333;DHT22;71254;53.010;6.508;2024-01-30T13:51:37;9.90;99.90
76333;DHT22;71254;53.010;6.508;2024-01-30T13:54:02;9.90;99.90
76333;DHT22;71254;53.010;6.508;2024-01-30T13:56:28;9.90;99.90
76333;DHT22;71254;53.010;6.508;2024-01-30T13:58:55;9.80;99.90
76333;DHT22;71254;53.010;6.508;2024-01-30T14:01:24;9.80;99.90
76333;DHT22;71254;53.010;6.508;2024-01-30T14:03:50;9.80;99.90
76333;DHT22;71254;53.010;6.508;2024-01-30T14:06:15;9.80;99.90
76333;DHT22;71254;53.010;6.508;2024-01-30T14:08:41;9.70;99.90
76333;DHT22;71254;53.010;6.508;2024-01-30T14:11:07;9.70;99.90
76333;DHT22;71254;53.010;6.508;2024-01-30T14:13:32;9.70;99.90
76333;DHT22;71254;53.010;6.508;2024-01-30T14:15:58;9.60;99.90
76333;DHT22;71254;53.010;6.508;2024-01-30T14:18:23;9.60;99.90
76333;DHT22;71254;53.010;6.508;2024-01-30T14:20:51;9.50;99.90
76333;DHT22;71254;53.010;6.508;2024-01-30T14:23:17;9.50;99.90
76333;DHT22;71254;53.010;6.508;2024-01-30T14:25:43;9.50;99.90
76333;DHT22;71254;53.010;6.508;2024-01-30T14:28:08;9.40;99.90
76333;DHT22;71254;53.010;6.508;2024-01-30T14:30:34;9.40;99.90
76333;DHT22;71254;53.010;6.508;2024-01-30T14:33:00;9.40;99.90
76333;DHT22;71254;53.010;6.508;2024-01-30T14:35:26;9.40;99.90
76333;DHT22;71254;53.010;6.508;2024-01-30T14:37:51;9.30;99.90
76333;DHT22;71254;53.010;6.508;2024-01-30T14:40:17;9.30;99.90
76333;DHT22;71254;53.010;6.508;2024-01-30T14:42:43;9.30;99.90
76333;DHT22;71254;53.010;6.508;2024-01-30T14:45:09;9.20;99.90
76333;DHT22;71254;53.010;6.508;2024-01-30T14:47:35;9.20;99.90
76333;DHT22;71254;53.010;6.508;2024-01-30T14:50:01;9.10;99.90
76333;DHT22;71254;53.010;6.508;2024-01-30T14:52:27;9.00;99.90
76333;DHT22;71254;53.010;6.508;2024-01-30T14:54:53;9.00;99.90
76333;DHT22;71254;53.010;6.508;2024-01-30T14:57:18;8.90;99.90
76333;DHT22;71254;53.010;6.508;2024-01-30T14:59:44;8.90;99.90
76333;DHT22;71254;53.010;6.508;2024-01-30T15:02:09;8.90;99.90
76333;DHT22;71254;53.010;6.508;2024-01-30T15:04:35;8.80;99.90
76333;DHT22;71254;53.010;6.508;2024-01-30T15:07:01;8.80;99.90
76333;DHT22;71254;53.010;6.508;2024-01-30T15:09:26;8.80;99.90
76333;DHT22;71254;53.010;6.508;2024-01-30T15:11:52;8.80;99.90
76333;DHT22;71254;53.010;6.508;2024-01-30T15:14:18;8.70;99.90
76333;DHT22;71254;53.010;6.508;2024-01-30T15:16:43;8.70;99.90
76333;DHT22;71254;53.010;6.508;2024-01-30T15:19:09;8.70;99.90
76333;DHT22;71254;53.010;6.508;2024-01-30T15:21:35;8.70;99.90
76333;DHT22;71254;53.010;6.508;2024-01-30T15:24:01;8.70;99.90
76333;DHT22;71254;53.010;6.508;2024-01-30T15:26:30;8.60;99.90
76333;DHT22;71254;53.010;6.508;2024-01-30T15:28:56;8.60;99.90
76333;DHT22;71254;53.010;6.508;2024-01-30T15:31:21;8.60;99.90
76333;DHT22;71254;53.010;6.508;2024-01-30T15:33:47;8.60;99.90
76333;DHT22;71254;53.010;6.508;2024-01-30T15:36:13;8.60;99.90
76333;DHT22;71254;53.010;6.508;2024-01-30T15:38:41;8.50;99.90